Time;durP1;ratioP1;P1;durP2;ratioP2;P2;SDS_P1;SDS_P2;PMS_P1;PMS_P2;Temp;Humidity;BMP_temperature;BMP_pressure;BME280_temperature;BME280_humidity;BME280_pressure;Samples;Min_cycle;Max_cycle;Signal;HPM_P1;HPM_P2
2021/11/13 00:00:48;;;;;;;90.90;34.95;;;;;;;4.23;100.00;99148.39;2234928;79;21056;-82
2021/11/13 00:03:49;;;;;;;80.22;34.20;;;;;;;4.25;100.00;99142.59;2232805;79;21576;-84
2021/11/13 00:06:50;;;;;;;87.05;35.43;;;;;;;4.23;100.00;99134.14;2233074;79;20971;-83
2021/11/13 00:09:51;;;;;;;84.00;35.23;;;;;;;4.29;100.00;99138.30;2261969;78;21501;-83
2021/11/13 00:12:51;;;;;;;92.45;34.95;;;;;;;4.31;100.00;99134.79;2249271;79;20994;-84
2021/11/13 00:15:52;;;;;;;69.80;28.07;;;;;;;4.35;100.00;99129.67;2232905;79;21006;-84
2021/11/13 00:18:53;;;;;;;70.08;30.20;;;;;;;4.37;100.00;99136.84;2243557;78;21030;-82
2021/11/13 00:21:54;;;;;;;70.05;30.57;;;;;;;4.35;100.00;99131.80;2236669;79;21497;-82
2021/11/13 00:24:54;;;;;;;70.15;27.85;;;;;;;4.33;100.00;99131.59;2251853;79;20983;-82
2021/11/13 00:27:55;;;;;;;72.42;29.50;;;;;;;4.29;100.00;99128.41;2243620;79;20972;-83
2021/11/13 00:30:56;;;;;;;63.90;28.12;;;;;;;4.23;100.00;99128.47;2243795;79;21015;-83
2021/11/13 00:33:57;;;;;;;70.78;29.20;;;;;;;4.20;100.00;99129.19;2225742;79;21011;-82
2021/11/13 00:36:58;;;;;;;60.03;26.77;;;;;;;4.19;100.00;99128.37;2221480;80;20941;-83
2021/11/13 00:39:59;;;;;;;57.10;26.35;;;;;;;4.17;100.00;99117.80;2221304;80;21060;-82
2021/11/13 00:42:59;;;;;;;59.05;25.25;;;;;;;4.11;100.00;99116.52;2221372;80;20946;-83
2021/11/13 00:46:00;;;;;;;63.85;26.85;;;;;;;4.07;100.00;99116.92;2221445;80;21088;-83
2021/11/13 00:49:01;;;;;;;60.05;25.70;;;;;;;4.05;100.00;99113.65;2220928;80;21508;-83
2021/11/13 00:52:02;;;;;;;52.80;23.40;;;;;;;4.04;100.00;99125.78;2211942;80;21464;-83
2021/11/13 00:55:03;;;;;;;66.28;28.62;;;;;;;4.02;100.00;99125.06;2182476;81;21055;-82
2021/11/13 00:58:03;;;;;;;65.35;27.73;;;;;;;4.04;100.00;99121.89;2182766;81;21488;-82
2021/11/13 01:01:04;;;;;;;67.32;27.32;;;;;;;4.07;100.00;99118.22;2182726;81;20973;-83
2021/11/13 01:04:05;;;;;;;65.60;26.82;;;;;;;4.06;100.00;99107.03;2182709;81;21504;-82
2021/11/13 01:07:06;;;;;;;58.65;26.75;;;;;;;4.03;100.00;99097.41;2183035;80;20956;-82
2021/11/13 01:10:06;;;;;;;65.47;27.30;;;;;;;4.04;100.00;99110.23;2213968;80;20981;-83
2021/11/13 01:13:07;;;;;;;55.38;25.50;;;;;;;4.00;100.00;99105.77;2221262;80;20934;-82
2021/11/13 01:16:08;;;;;;;58.48;24.35;;;;;;;3.94;100.00;99105.48;2231464;80;20988;-82
2021/11/13 01:19:10;;;;;;;55.20;23.60;;;;;;;3.94;100.00;99100.30;2231475;80;20956;-83
2021/11/13 01:22:11;;;;;;;47.05;22.58;;;;;;;3.94;100.00;99100.30;2194175;80;21013;-81
2021/11/13 01:25:12;;;;;;;58.87;24.87;;;;;;;3.88;100.00;99097.73;2192606;81;21542;-82
2021/11/13 01:28:13;;;;;;;51.28;23.65;;;;;;;3.87;100.00;99098.69;2192362;81;20975;-82
2021/11/13 01:31:15;;;;;;;57.93;25.08;;;;;;;3.90;100.00;99092.41;2192633;81;22027;-82
2021/11/13 01:34:15;;;;;;;70.05;29.75;;;;;;;3.93;100.00;99097.33;2198949;81;21497;-81
2021/11/13 01:37:16;;;;;;;57.48;25.80;;;;;;;3.97;100.00;99091.78;2224185;80;21037;-81
2021/11/13 01:40:17;;;;;;;69.32;28.95;;;;;;;4.02;100.00;99090.56;2189794;81;21450;-84
2021/11/13 01:43:18;;;;;;;68.72;28.62;;;;;;;4.04;100.00;99082.20;2224128;80;20980;-82
2021/11/13 01:46:18;;;;;;;67.35;27.80;;;;;;;4.07;100.00;99074.98;2189866;81;21015;-82
2021/11/13 01:49:19;;;;;;;69.65;28.87;;;;;;;4.10;100.00;99073.42;2198401;80;21050;-83
2021/11/13 01:52:20;;;;;;;63.83;27.02;;;;;;;4.06;100.00;99067.34;2224224;80;21504;-81
2021/11/13 01:55:21;;;;;;;64.07;25.17;;;;;;;4.03;100.00;99070.20;2189637;80;20966;-82
2021/11/13 01:58:22;;;;;;;66.33;28.92;;;;;;;3.98;100.00;99069.28;2223898;80;21110;-81
2021/11/13 02:01:23;;;;;;;67.35;27.30;;;;;;;3.96;100.00;99059.53;2189857;80;21468;-81
2021/11/13 02:04:24;;;;;;;66.90;27.95;;;;;;;3.96;100.00;99061.64;2223994;80;21019;-82
2021/11/13 02:07:25;;;;;;;63.13;26.30;;;;;;;3.96;100.00;99058.23;2189939;81;21521;-81
2021/11/13 02:10:26;;;;;;;67.82;27.55;;;;;;;3.87;100.00;99053.34;2224140;80;20982;-82
2021/11/13 02:13:26;;;;;;;69.82;27.70;;;;;;;3.85;100.00;99043.59;2189423;81;21042;-81
2021/11/13 02:16:27;;;;;;;79.82;31.02;;;;;;;3.87;100.00;99039.58;2223743;80;20971;-82
2021/11/13 02:19:28;;;;;;;69.95;29.40;;;;;;;3.89;100.00;99037.67;2189580;81;21027;-82
2021/11/13 02:22:29;;;;;;;59.63;25.90;;;;;;;3.90;100.00;99034.13;2221479;80;20990;-82
2021/11/13 02:25:30;;;;;;;75.05;31.35;;;;;;;3.91;100.00;99036.58;2189700;81;20956;-82
2021/11/13 02:28:35;;;;;;;70.90;28.55;;;;;;;3.90;100.00;99030.23;2224363;80;21018;-82
2021/11/13 02:31:33;;;;;;;72.22;30.27;;;;;;;3.94;100.00;99044.59;2189119;81;21031;-82
2021/11/13 02:34:34;;;;;;;76.20;31.37;;;;;;;3.97;100.00;99048.21;2222277;80;21077;-82
2021/11/13 02:37:35;;;;;;;82.45;32.28;;;;;;;3.96;100.00;99043.50;2193185;80;21010;-82
2021/11/13 02:40:36;;;;;;;89.17;34.10;;;;;;;4.01;100.00;99048.28;2202224;81;21712;-82
2021/11/13 02:43:37;;;;;;;71.77;30.02;;;;;;;4.00;100.00;99050.05;2181359;81;21066;-82
2021/11/13 02:46:38;;;;;;;71.35;29.32;;;;;;;3.96;100.00;99045.27;2229300;79;21371;-82
2021/11/13 02:49:38;;;;;;;71.77;28.62;;;;;;;3.93;100.00;99051.99;2219661;80;21053;-82
2021/11/13 02:52:39;;;;;;;67.22;28.75;;;;;;;3.95;100.00;99058.70;2241620;79;21448;-83
2021/11/13 02:55:40;;;;;;;77.70;29.77;;;;;;;4.01;100.00;99067.72;2259648;79;20990;-82
2021/11/13 02:58:41;;;;;;;68.52;28.27;;;;;;;4.06;100.00;99064.75;2222235;80;21496;-82
2021/11/13 03:01:42;;;;;;;72.20;29.67;;;;;;;4.08;100.00;99067.55;2222695;80;20959;-82
2021/11/13 03:04:42;;;;;;;63.48;25.97;;;;;;;4.07;100.00;99063.32;2222453;80;21025;-82
2021/11/13 03:07:43;;;;;;;63.38;27.93;;;;;;;4.10;100.00;99063.53;2222249;80;20950;-82
2021/11/13 03:10:44;;;;;;;67.90;27.98;;;;;;;4.12;100.00;99053.40;2222314;80;20994;-82
2021/11/13 03:13:45;;;;;;;67.47;28.77;;;;;;;4.10;100.00;99047.50;2223721;79;21038;-82
2021/11/13 03:16:46;;;;;;;70.87;29.40;;;;;;;4.11;100.00;99046.55;2222087;80;21496;-83
2021/11/13 03:19:47;;;;;;;76.47;31.07;;;;;;;4.11;100.00;99052.21;2222181;80;20993;-82
2021/11/13 03:22:48;;;;;;;53.65;23.92;;;;;;;3.98;100.00;99043.37;2247021;79;21422;-82
2021/11/13 03:25:48;;;;;;;64.10;26.65;;;;;;;3.89;100.00;99048.03;2262238;79;21010;-81
2021/11/13 03:28:49;;;;;;;72.78;29.90;;;;;;;3.80;100.00;99047.03;2262240;79;20959;-82
2021/11/13 03:31:51;;;;;;;79.10;31.37;;;;;;;3.75;100.00;99047.05;2262121;79;21273;-82
2021/11/13 03:34:51;;;;;;;76.33;32.38;;;;;;;3.66;100.00;99049.49;2262272;78;20988;-82
2021/11/13 03:37:52;;;;;;;71.72;29.70;;;;;;;3.66;100.00;99036.55;2222568;80;21016;-81
2021/11/13 03:40:53;;;;;;;74.20;30.40;;;;;;;3.64;100.00;99033.23;2222740;79;20957;-82
2021/11/13 03:43:54;;;;;;;72.53;29.55;;;;;;;3.63;100.00;99030.30;2222652;80;22050;-82
2021/11/13 03:46:55;;;;;;;79.58;32.88;;;;;;;3.61;100.00;99020.55;2222409;80;20980;-82
2021/11/13 03:49:55;;;;;;;71.90;28.27;;;;;;;3.64;100.00;99016.88;2222563;80;21446;-82
2021/11/13 03:52:56;;;;;;;62.93;27.95;;;;;;;3.57;100.00;99018.36;2248881;79;20985;-82
2021/11/13 03:55:57;;;;;;;65.80;28.55;;;;;;;3.55;100.00;99015.05;2262539;79;20997;-82
2021/11/13 03:58:58;;;;;;;72.37;29.67;;;;;;;3.55;100.00;99016.34;2262556;79;21473;-82
2021/11/13 04:01:58;;;;;;;69.50;29.70;;;;;;;3.50;100.00;99018.05;2262708;79;20985;-81
2021/11/13 04:04:59;;;;;;;62.27;26.12;;;;;;;3.48;100.00;99016.53;2262545;79;21017;-82
2021/11/13 04:08:00;;;;;;;57.88;24.20;;;;;;;3.42;100.00;99007.50;2262649;79;21096;-82
2021/11/13 04:11:01;;;;;;;71.87;29.32;;;;;;;3.43;100.00;99003.95;2262392;79;21017;-82
2021/11/13 04:14:02;;;;;;;65.85;28.38;;;;;;;3.46;100.00;98999.81;2262350;79;20954;-82
2021/11/13 04:17:03;;;;;;;66.87;27.58;;;;;;;3.50;100.00;98990.04;2262437;79;20993;-82
2021/11/13 04:20:03;;;;;;;68.15;30.50;;;;;;;3.51;100.00;98994.27;2262539;79;21061;-82
2021/11/13 04:23:04;;;;;;;76.05;29.87;;;;;;;3.49;100.00;98989.22;2235102;79;20969;-81
2021/11/13 04:26:05;;;;;;;73.05;29.25;;;;;;;3.51;100.00;98989.09;2222527;79;20934;-82
2021/11/13 04:29:06;;;;;;;77.47;31.85;;;;;;;3.50;100.00;98988.75;2222671;79;21539;-83
2021/11/13 04:32:07;;;;;;;74.92;30.72;;;;;;;3.55;100.00;98983.98;2222158;80;20981;-82
2021/11/13 04:35:18;;;;;;;68.20;28.02;;;;;;;3.54;100.00;98987.05;2221695;80;21049;-84
2021/11/13 04:38:16;;;;;;;64.25;26.70;;;;;;;3.50;100.00;98992.16;2221029;80;21399;-82
2021/11/13 04:41:17;;;;;;;69.70;29.23;;;;;;;3.48;100.00;98992.77;2221968;80;20977;-83
2021/11/13 04:44:17;;;;;;;66.40;28.87;;;;;;;3.51;100.00;98987.31;2222197;80;20974;-81
2021/11/13 04:47:18;;;;;;;74.77;30.00;;;;;;;3.53;100.00;98988.00;2222230;80;21017;-81
2021/11/13 04:50:19;;;;;;;71.95;29.75;;;;;;;3.54;100.00;98990.11;2222194;80;20922;-82
2021/11/13 04:53:20;;;;;;;71.40;29.30;;;;;;;3.60;100.00;98994.80;2251822;79;21024;-83
2021/11/13 04:56:21;;;;;;;66.70;29.37;;;;;;;3.62;100.00;98999.36;2262017;79;20974;-82
2021/11/13 04:59:22;;;;;;;64.60;26.73;;;;;;;3.56;100.00;98999.86;2262135;79;20939;-82
2021/11/13 05:02:22;;;;;;;71.33;27.90;;;;;;;3.54;100.00;99001.77;2262403;79;21535;-82
2021/11/13 05:05:23;;;;;;;62.17;26.40;;;;;;;3.58;100.00;98997.98;2262032;79;20962;-82
2021/11/13 05:08:24;;;;;;;67.58;26.27;;;;;;;3.58;100.00;99000.10;2262137;79;21555;-82
2021/11/13 05:11:36;;;;;;;;;;;;;;;;;;;;;
2021/11/13 05:14:27;;;;;;;71.87;30.08;;;;;;;3.51;100.00;98995.08;2102383;84;21185;-82
2021/11/13 05:17:28;;;;;;;61.90;26.10;;;;;;;3.54;100.00;99000.47;2102624;85;21559;-82
2021/11/13 05:20:29;;;;;;;68.67;27.52;;;;;;;3.58;100.00;98996.22;2102190;85;20973;-81
2021/11/13 05:23:30;;;;;;;61.42;25.35;;;;;;;3.61;100.00;98995.95;2075506;85;22128;-82
2021/11/13 05:26:31;;;;;;;59.18;23.70;;;;;;;3.60;100.00;98995.61;2067927;86;21085;-81
2021/11/13 05:29:32;;;;;;;64.47;26.45;;;;;;;3.60;100.00;98992.20;2067839;86;21083;-82
2021/11/13 05:32:32;;;;;;;56.02;25.80;;;;;;;3.58;100.00;98998.81;2067600;86;21111;-81
2021/11/13 05:35:33;;;;;;;53.42;23.52;;;;;;;3.57;100.00;98998.94;2069966;86;21635;-81
2021/11/13 05:38:34;;;;;;;66.77;27.35;;;;;;;3.54;100.00;99001.29;2070341;86;21055;-82
2021/11/13 05:41:35;;;;;;;61.18;25.97;;;;;;;3.54;100.00;98999.17;2070428;86;21004;-81
2021/11/13 05:44:36;;;;;;;71.15;28.95;;;;;;;3.58;100.00;99007.88;2070310;86;20996;-82
2021/11/13 05:47:37;;;;;;;64.60;25.72;;;;;;;3.61;100.00;98997.72;2070253;86;21071;-82
2021/11/13 05:50:37;;;;;;;51.77;23.57;;;;;;;3.61;100.00;99006.78;2096288;80;20938;-81
2021/11/13 05:53:38;;;;;;;61.77;26.07;;;;;;;3.51;100.00;99009.32;2257627;79;20965;-83
2021/11/13 05:56:39;;;;;;;64.45;26.68;;;;;;;3.52;100.00;99009.66;2264934;79;20969;-82
2021/11/13 05:59:40;;;;;;;60.15;26.95;;;;;;;3.56;100.00;99014.92;2264815;79;20985;-82
2021/11/13 06:02:41;;;;;;;62.27;25.48;;;;;;;3.53;100.00;99010.01;2253449;79;21007;-80
2021/11/13 06:05:43;;;;;;;67.08;28.00;;;;;;;3.53;100.00;99017.78;2250042;79;21429;-82
2021/11/13 06:08:43;;;;;;;54.25;23.62;;;;;;;3.46;100.00;99018.41;2224846;79;20945;-81
2021/11/13 06:11:44;;;;;;;61.30;26.23;;;;;;;3.44;100.00;99018.54;2227805;79;21523;-82
2021/11/13 06:14:45;;;;;;;64.47;28.50;;;;;;;3.43;100.00;99033.73;2265144;79;21041;-82
2021/11/13 06:17:46;;;;;;;55.10;21.30;;;;;;;3.45;100.00;99029.23;2264924;79;21823;-82
2021/11/13 06:20:47;;;;;;;60.45;26.27;;;;;;;3.33;100.00;99035.44;2264846;79;20982;-82
2021/11/13 06:23:47;;;;;;;48.90;22.85;;;;;;;3.30;100.00;99036.52;2264792;79;21046;-84
2021/11/13 06:26:48;;;;;;;55.92;23.40;;;;;;;3.32;100.00;99037.20;2265068;79;20985;-81
2021/11/13 06:29:49;;;;;;;49.40;23.15;;;;;;;3.37;100.00;99044.10;2263657;77;21042;-85
2021/11/13 06:32:51;;;;;;;50.20;22.67;;;;;;;3.43;100.00;99042.79;2278798;77;20958;-82
2021/11/13 06:35:52;;;;;;;50.50;23.52;;;;;;;3.48;100.00;99042.42;2257796;78;20998;-82
2021/11/13 06:38:52;;;;;;;61.45;25.92;;;;;;;3.52;100.00;99042.03;2260694;79;21069;-81
2021/11/13 06:41:53;;;;;;;48.58;23.18;;;;;;;3.59;100.00;99042.35;2225169;79;20950;-82
2021/11/13 06:44:54;;;;;;;52.03;23.00;;;;;;;3.65;100.00;99039.23;2239667;79;21081;-83
2021/11/13 06:47:55;;;;;;;50.73;22.85;;;;;;;3.70;100.00;99044.39;2239919;79;20977;-83
2021/11/13 06:50:55;;;;;;;49.88;21.82;;;;;;;3.73;100.00;99045.08;2239923;79;20996;-84
2021/11/13 06:53:56;;;;;;;50.78;24.52;;;;;;;3.77;100.00;99043.89;2239410;79;21013;-83
2021/11/13 06:56:58;;;;;;;44.08;20.75;;;;;;;3.79;100.00;99033.73;2233589;79;21003;-84
2021/11/13 06:59:59;;;;;;;44.35;21.97;;;;;;;3.80;100.00;99038.44;2201259;81;20982;-86
2021/11/13 07:03:02;;;;;;;53.33;23.75;;;;;;;3.79;100.00;99041.98;2201086;80;21041;-85
2021/11/13 07:06:03;;;;;;;43.52;21.62;;;;;;;3.70;100.00;99043.09;2201044;81;21078;-84
2021/11/13 07:09:03;;;;;;;45.95;22.77;;;;;;;3.58;100.00;99041.53;2222687;79;20951;-89
2021/11/13 07:12:04;;;;;;;40.50;20.08;;;;;;;3.60;100.00;99047.87;2236298;79;20951;-88
2021/11/13 07:15:05;;;;;;;44.23;20.17;;;;;;;3.63;100.00;99055.37;2240387;79;20963;-91
2021/11/13 07:18:06;;;;;;;48.15;22.98;;;;;;;3.66;100.00;99056.44;2240475;79;20952;-92
2021/11/13 07:21:07;;;;;;;46.77;22.20;;;;;;;3.71;100.00;99060.75;2240270;79;21059;-92
2021/11/13 07:24:07;;;;;;;37.42;20.37;;;;;;;3.77;100.00;99063.31;2243428;78;21415;-89
2021/11/13 07:27:09;;;;;;;46.95;22.37;;;;;;;3.84;100.00;99053.61;2236791;79;21336;-90
2021/11/13 07:30:09;;;;;;;51.65;23.67;;;;;;;3.89;100.00;99059.69;2241166;79;20963;-87
2021/11/13 07:33:10;;;;;;;53.17;26.82;;;;;;;3.90;100.00;99054.38;2266427;79;20993;-87
2021/11/13 07:36:11;;;;;;;47.38;23.30;;;;;;;3.88;100.00;99049.80;2266011;78;21098;-89
2021/11/13 07:39:12;;;;;;;44.33;21.37;;;;;;;3.89;100.00;99058.39;2266518;78;20963;-88
2021/11/13 07:42:13;;;;;;;46.55;20.95;;;;;;;3.83;100.00;99048.53;2266664;78;21047;-90
2021/11/13 07:45:13;;;;;;;46.40;22.62;;;;;;;3.72;100.00;99052.02;2231006;78;21014;-89
2021/11/13 07:48:14;;;;;;;54.05;24.80;;;;;;;3.71;100.00;99045.20;2262203;78;20934;-88
2021/11/13 07:51:16;;;;;;;53.78;22.62;;;;;;;3.74;100.00;99051.89;2262102;79;21568;-88
2021/11/13 07:54:17;;;;;;;49.03;23.18;;;;;;;3.69;100.00;99050.52;2262047;79;21077;-88
2021/11/13 07:57:17;;;;;;;49.53;24.32;;;;;;;3.65;100.00;99056.06;2249214;79;21473;-88
2021/11/13 08:00:18;;;;;;;42.58;21.25;;;;;;;3.65;100.00;99050.89;2200552;80;20993;-87
2021/11/13 08:03:19;;;;;;;42.58;20.75;;;;;;;3.69;100.00;99044.05;2225894;79;21444;-89
2021/11/13 08:06:20;;;;;;;50.10;24.47;;;;;;;3.70;100.00;99038.39;2239983;79;20961;-89
2021/11/13 08:09:21;;;;;;;52.08;24.95;;;;;;;3.70;100.00;99037.91;2239895;79;20974;-88
2021/11/13 08:12:21;;;;;;;49.85;23.62;;;;;;;3.69;100.00;99036.75;2239882;79;21431;-88
2021/11/13 08:15:22;;;;;;;57.08;26.35;;;;;;;3.65;100.00;99041.34;2239778;79;21051;-87
2021/11/13 08:18:23;;;;;;;54.42;24.27;;;;;;;3.58;100.00;99041.53;2207583;79;21023;-88
2021/11/13 08:21:24;;;;;;;50.48;23.67;;;;;;;3.61;100.00;99049.03;2228588;80;20956;-88
2021/11/13 08:24:25;;;;;;;53.85;24.25;;;;;;;3.67;100.00;99051.61;2201066;81;21508;-88
2021/11/13 08:27:25;;;;;;;57.08;24.65;;;;;;;3.79;100.00;99048.45;2228643;80;20924;-87
2021/11/13 08:30:29;;;;;;;52.08;23.57;;;;;;;3.88;100.00;99052.39;2200691;81;20997;-88
2021/11/13 08:33:29;;;;;;;50.43;23.80;;;;;;;3.94;100.00;99047.19;2218775;80;21049;-88
2021/11/13 08:36:30;;;;;;;47.20;21.75;;;;;;;3.99;100.00;99043.23;2224302;80;21669;-87
2021/11/13 08:39:34;;;;;;;55.05;24.72;;;;;;;4.04;100.00;99037.68;2189699;81;20997;-87
2021/11/13 08:42:33;;;;;;;46.10;22.05;;;;;;;4.02;100.00;99041.33;2189959;81;21085;-87
2021/11/13 08:45:34;;;;;;;48.80;22.25;;;;;;;3.99;100.00;99043.23;2209319;80;20928;-88
2021/11/13 08:48:35;;;;;;;53.35;26.20;;;;;;;3.97;100.00;99043.03;2228686;79;20988;-88
2021/11/13 08:51:35;;;;;;;51.55;26.07;;;;;;;3.93;100.00;99036.00;2228642;80;20972;-87
2021/11/13 08:54:36;;;;;;;47.33;22.80;;;;;;;3.93;100.00;99041.19;2228570;80;21067;-88
2021/11/13 08:57:37;;;;;;;46.02;21.62;;;;;;;3.93;100.00;99036.00;2207438;79;20959;-88
2021/11/13 09:00:38;;;;;;;56.05;25.95;;;;;;;3.94;100.00;99033.75;2224234;80;21024;-88
2021/11/13 09:03:39;;;;;;;47.25;23.27;;;;;;;3.96;100.00;99039.62;2189762;81;21454;-88
2021/11/13 09:06:40;;;;;;;40.08;21.42;;;;;;;4.02;100.00;99036.96;2224134;80;20967;-88
2021/11/13 09:09:40;;;;;;;42.83;21.55;;;;;;;4.11;100.00;99033.59;2189826;81;21038;-88
2021/11/13 09:12:41;;;;;;;52.75;24.87;;;;;;;4.21;100.00;99037.06;2216173;80;20896;-87
2021/11/13 09:15:42;;;;;;;49.65;21.20;;;;;;;4.38;100.00;99036.07;2223934;80;21053;-88
2021/11/13 09:18:44;;;;;;;55.78;23.15;;;;;;;4.45;100.00;99033.30;2189760;81;21035;-87
2021/11/13 09:21:45;;;;;;;46.65;22.82;;;;;;;4.55;100.00;99025.87;2189563;81;21062;-88
2021/11/13 09:24:46;;;;;;;48.85;23.10;;;;;;;4.66;100.00;99026.23;2216569;80;20961;-89
2021/11/13 09:27:47;;;;;;;51.25;24.47;;;;;;;4.76;100.00;99023.20;2227853;79;20967;-88
2021/11/13 09:30:48;;;;;;;47.00;23.30;;;;;;;4.84;100.00;99005.64;2228652;79;21001;-87
2021/11/13 09:33:48;;;;;;;43.45;22.02;;;;;;;4.90;100.00;99002.98;2228506;80;21031;-88
2021/11/13 09:36:49;;;;;;;57.98;25.43;;;;;;;4.92;100.00;99001.07;2228056;79;21016;-88
2021/11/13 09:39:50;;;;;;;46.40;24.43;;;;;;;4.97;100.00;98999.72;2228417;79;21353;-89
2021/11/13 09:42:51;;;;;;;50.78;23.92;;;;;;;5.02;100.00;98991.02;2166953;80;20983;-89
2021/11/13 09:45:52;;;;;;;47.40;24.15;;;;;;;5.08;100.00;98990.48;2223973;80;20979;-90
2021/11/13 09:48:53;;;;;;;51.77;24.32;;;;;;;5.13;100.00;98994.80;2215166;79;21038;-88
2021/11/13 09:51:53;;;;;;;48.75;23.38;;;;;;;5.07;100.00;98995.34;2230265;79;21364;-89
2021/11/13 09:54:54;;;;;;;46.33;23.83;;;;;;;4.96;100.00;98992.89;2248614;79;20931;-89
2021/11/13 09:57:55;;;;;;;44.70;22.77;;;;;;;4.93;100.00;98998.33;2248712;79;20970;-88
2021/11/13 10:00:56;;;;;;;45.38;23.10;;;;;;;5.04;100.00;98990.91;2236780;79;21459;-89
2021/11/13 10:03:56;;;;;;;49.50;23.67;;;;;;;5.04;100.00;98990.91;2289470;78;20967;-89
2021/11/13 10:06:57;;;;;;;38.25;19.27;;;;;;;5.16;100.00;98996.77;2254944;78;20929;-90
2021/11/13 10:09:58;;;;;;;51.08;23.67;;;;;;;5.22;100.00;98993.16;2267136;78;20964;-88
2021/11/13 10:13:02;;;;;;;47.10;23.55;;;;;;;5.25;100.00;98990.27;2268996;78;21022;-89
2021/11/13 10:16:02;;;;;;;53.13;24.47;;;;;;;5.37;100.00;98996.94;2255615;79;21030;-89
2021/11/13 10:19:03;;;;;;;48.13;23.57;;;;;;;5.50;100.00;98992.76;2233758;80;21021;-89
2021/11/13 10:22:04;;;;;;;50.17;26.23;;;;;;;5.54;100.00;98990.20;2274871;78;20945;-88
2021/11/13 10:25:05;;;;;;;43.10;22.48;;;;;;;5.59;100.00;98988.50;2274246;78;21018;-90
2021/11/13 10:28:06;;;;;;;48.95;23.10;;;;;;;5.68;100.00;98995.45;2269749;78;21066;-89
2021/11/13 10:31:07;;;;;;;46.83;23.12;;;;;;;5.69;100.00;98991.41;2238649;79;20999;-90
2021/11/13 10:34:08;;;;;;;49.18;24.15;;;;;;;5.70;100.00;98981.34;2243254;78;21032;-90
2021/11/13 10:37:11;;;;;;;47.58;26.85;;;;;;;5.75;100.00;98988.70;2255458;78;21062;-89
2021/11/13 10:40:13;;;;;;;43.85;21.57;;;;;;;5.71;100.00;98989.47;2191081;81;21060;-88
2021/11/13 10:43:14;;;;;;;48.38;22.85;;;;;;;5.75;100.00;98989.18;2256263;79;21010;-89
2021/11/13 10:46:14;;;;;;;47.53;25.80;;;;;;;5.78;100.00;98984.53;2254183;78;21021;-88
2021/11/13 10:49:15;;;;;;;44.42;24.20;;;;;;;5.82;100.00;98993.67;2232589;79;20979;-90
2021/11/13 10:52:16;;;;;;;48.63;23.60;;;;;;;5.88;100.00;98981.90;2232493;79;21547;-91
2021/11/13 10:55:17;;;;;;;45.73;23.25;;;;;;;5.88;100.00;98974.92;2232453;80;21599;-92
2021/11/13 10:58:18;;;;;;;50.30;26.35;;;;;;;5.93;100.00;98972.72;2232277;80;21037;-92
2021/11/13 11:01:19;;;;;;;43.40;22.73;;;;;;;5.95;100.00;98975.20;2232620;80;21008;-91
2021/11/13 11:04:19;;;;;;;47.05;23.52;;;;;;;5.85;100.00;98970.47;2232336;80;21018;-90
2021/11/13 11:07:21;;;;;;;51.77;24.52;;;;;;;5.68;100.00;98956.48;2232359;80;21352;-89
2021/11/13 11:10:22;;;;;;;48.52;23.90;;;;;;;5.63;100.00;98945.67;2232282;80;21009;-89
2021/11/13 11:13:22;;;;;;;53.68;25.45;;;;;;;5.56;100.00;98944.12;2232438;80;21009;-89
2021/11/13 11:16:23;;;;;;;59.35;26.00;;;;;;;5.52;100.00;98944.56;2232460;80;20965;-90
2021/11/13 11:19:24;;;;;;;49.60;24.63;;;;;;;5.46;100.00;98942.03;2232623;80;21057;-89
2021/11/13 11:22:25;;;;;;;52.40;23.60;;;;;;;5.50;100.00;98943.41;2233143;80;20970;-89
2021/11/13 11:25:27;;;;;;;55.38;27.13;;;;;;;5.51;100.00;98944.22;2231898;80;21408;-86
2021/11/13 11:28:28;;;;;;;51.05;24.77;;;;;;;5.53;100.00;98950.91;2171951;81;21021;-89
2021/11/13 11:31:29;;;;;;;55.45;27.32;;;;;;;5.57;100.00;98957.92;2230255;80;21020;-90
2021/11/13 11:34:30;;;;;;;42.90;21.62;;;;;;;5.52;100.00;98953.17;2232503;80;21059;-89
2021/11/13 11:37:30;;;;;;;51.20;24.37;;;;;;;5.51;100.00;98948.94;2216265;80;21492;-89
2021/11/13 11:40:31;;;;;;;45.78;22.20;;;;;;;5.41;100.00;98948.16;2262076;79;21044;-89
2021/11/13 11:43:32;;;;;;;51.30;25.77;;;;;;;5.34;100.00;98943.17;2262292;79;20969;-90
2021/11/13 11:46:33;;;;;;;54.45;26.95;;;;;;;5.32;100.00;98947.22;2262502;79;21099;-90
2021/11/13 11:49:33;;;;;;;56.73;27.77;;;;;;;5.39;100.00;98945.70;2262188;79;20953;-89
2021/11/13 11:52:34;;;;;;;57.93;27.93;;;;;;;5.42;100.00;98935.02;2262289;79;20995;-90
2021/11/13 11:55:35;;;;;;;55.03;28.07;;;;;;;5.48;100.00;98931.02;2225730;79;20958;-90
2021/11/13 11:58:36;;;;;;;58.68;28.62;;;;;;;5.51;100.00;98924.74;2188485;80;21475;-90
2021/11/13 12:01:37;;;;;;;55.25;26.68;;;;;;;5.64;100.00;98931.24;2204916;81;21011;-89
2021/11/13 12:04:38;;;;;;;49.38;24.77;;;;;;;5.60;100.00;98935.58;2204867;81;21052;-89
2021/11/13 12:07:39;;;;;;;48.23;25.32;;;;;;;5.54;100.00;98933.06;2239257;79;20995;-89
2021/11/13 12:10:40;;;;;;;51.55;24.18;;;;;;;5.48;100.00;98929.72;2243799;79;21130;-89
2021/11/13 12:13:41;;;;;;;52.65;25.65;;;;;;;5.42;100.00;98922.52;2243378;79;20953;-88
2021/11/13 12:16:42;;;;;;;50.15;25.97;;;;;;;5.38;100.00;98923.73;2243625;79;20995;-88
2021/11/13 12:19:43;;;;;;;51.70;23.65;;;;;;;5.31;100.00;98925.29;2243901;79;20991;-89
2021/11/13 12:22:44;;;;;;;43.52;20.48;;;;;;;5.32;100.00;98919.95;2242708;79;20901;-89
2021/11/13 12:25:45;;;;;;;43.65;23.52;;;;;;;5.32;100.00;98914.76;2243764;79;21547;-88
2021/11/13 12:28:46;;;;;;;47.55;24.65;;;;;;;5.23;100.00;98921.28;2243779;79;20972;-88
2021/11/13 12:31:47;;;;;;;54.05;26.82;;;;;;;5.16;100.00;98924.09;2243588;79;21048;-89
2021/11/13 12:34:48;;;;;;;50.00;24.07;;;;;;;5.11;100.00;98924.48;2220799;79;21439;-84
2021/11/13 12:37:48;;;;;;;60.17;27.15;;;;;;;5.13;100.00;98925.19;2223869;80;20987;-86
2021/11/13 12:40:49;;;;;;;52.08;25.57;;;;;;;5.17;100.00;98916.63;2211860;78;20968;-87
2021/11/13 12:43:50;;;;;;;52.55;26.20;;;;;;;5.22;100.00;98914.45;2263825;79;21519;-87
2021/11/13 12:46:51;;;;;;;50.70;25.02;;;;;;;5.11;100.00;98908.43;2260818;79;21026;-87
2021/11/13 12:49:51;;;;;;;47.08;24.63;;;;;;;5.08;100.00;98898.34;2255957;79;21011;-87
2021/11/13 12:52:52;;;;;;;47.55;23.73;;;;;;;5.00;100.00;98896.10;2235248;79;21481;-85
2021/11/13 12:55:53;;;;;;;50.67;25.88;;;;;;;4.95;100.00;98893.94;2230333;79;21003;-86
2021/11/13 12:58:54;;;;;;;42.35;22.80;;;;;;;4.90;100.00;98896.12;2240428;79;21437;-87
2021/11/13 13:01:55;;;;;;;45.95;23.83;;;;;;;4.86;100.00;98901.26;2263927;78;20974;-87
2021/11/13 13:04:56;;;;;;;44.60;21.82;;;;;;;4.79;100.00;98897.58;2263671;79;21557;-87
2021/11/13 13:07:58;;;;;;;39.80;21.12;;;;;;;4.78;100.00;98903.72;2216234;78;20942;-88
2021/11/13 13:10:59;;;;;;;39.48;21.82;;;;;;;4.70;100.00;98901.81;2204223;81;21029;-87
2021/11/13 13:14:00;;;;;;;45.75;23.22;;;;;;;4.63;100.00;98896.83;2204196;81;21043;-90
2021/11/13 13:17:00;;;;;;;57.25;27.27;;;;;;;4.66;100.00;98902.20;2225381;79;20943;-88
2021/11/13 13:20:01;;;;;;;55.25;25.17;;;;;;;4.73;100.00;98900.23;2263764;79;21537;-90
2021/11/13 13:23:02;;;;;;;40.85;21.82;;;;;;;4.84;100.00;98894.89;2228538;79;21563;-90
2021/11/13 13:26:03;;;;;;;58.02;25.43;;;;;;;4.80;100.00;98895.31;2264216;78;21020;-88
2021/11/13 13:29:04;;;;;;;59.53;26.25;;;;;;;4.77;100.00;98891.23;2228804;79;20988;-90
2021/11/13 13:32:04;;;;;;;53.87;27.05;;;;;;;4.91;100.00;98896.45;2264383;79;21054;-88
2021/11/13 13:35:05;;;;;;;52.45;23.95;;;;;;;4.96;100.00;98898.66;2232723;78;21475;-88
2021/11/13 13:38:06;;;;;;;55.48;25.62;;;;;;;4.97;100.00;98899.80;2199227;80;20956;-87
2021/11/13 13:41:07;;;;;;;56.60;28.00;;;;;;;4.99;100.00;98902.25;2180414;81;20991;-88
2021/11/13 13:44:08;;;;;;;51.88;26.77;;;;;;;5.01;100.00;98905.04;2220638;80;21128;-88
2021/11/13 13:47:09;;;;;;;53.75;24.90;;;;;;;5.06;100.00;98903.34;2220756;80;21535;-86
2021/11/13 13:50:10;;;;;;;70.42;29.90;;;;;;;5.10;100.00;98898.20;2220779;80;21000;-88
2021/11/13 13:53:11;;;;;;;63.48;27.70;;;;;;;5.11;100.00;98899.34;2218131;80;21003;-85